CEB161 RPLL-RPMR
Flight info
| Callsign | CEB161 |
|---|---|
| Flight time | N/A |
| Altitude | 37000 |
| Route | RDVXVERDE/06 VERDE A461 SAJ W3 IOO B472 COT W19 MELBY MELBY3P |
| Aircraft | A339/H-SADE1E2E3GHIJ3J5M1P2RWXY/LB2D1 |
Departure
| Time | 2026-04-30 14:11 |
|---|---|
| Airport | Ninoy Aquino International Airport (RPLL) |
Arrival
| Time | N/A |
|---|---|
| Airport | General Santos International Airport (RPMR) |
| Time | Latitude | Longitude | Altitude | Speed | Heading |
|---|---|---|---|---|---|
| 2026-04-30 13:59 | 14.51597 | 121.01341 | 92 ft | 5 kts | 141° |
| 2026-04-30 14:00 | 14.51568 | 121.01369 | 92 ft | 6 kts | 135° |
| 2026-04-30 14:00 | 14.51494 | 121.01446 | 92 ft | 9 kts | 135° |
| 2026-04-30 14:00 | 14.51445 | 121.01498 | 92 ft | 12 kts | 134° |
| 2026-04-30 14:01 | 14.51396 | 121.01549 | 92 ft | 10 kts | 135° |
| 2026-04-30 14:01 | 14.51332 | 121.01615 | 92 ft | 16 kts | 135° |
| 2026-04-30 14:01 | 14.51255 | 121.01695 | 92 ft | 12 kts | 135° |
| 2026-04-30 14:01 | 14.51195 | 121.01756 | 92 ft | 12 kts | 135° |
| 2026-04-30 14:02 | 14.51135 | 121.01818 | 92 ft | 12 kts | 134° |
| 2026-04-30 14:02 | 14.51077 | 121.01879 | 92 ft | 10 kts | 134° |
| 2026-04-30 14:02 | 14.51011 | 121.01904 | 92 ft | 11 kts | 198° |
| 2026-04-30 14:02 | 14.50961 | 121.01847 | 92 ft | 12 kts | 239° |
| 2026-04-30 14:03 | 14.50916 | 121.01764 | 92 ft | 14 kts | 240° |
| 2026-04-30 14:03 | 14.50864 | 121.01671 | 92 ft | 15 kts | 240° |
| 2026-04-30 14:03 | 14.50814 | 121.01582 | 92 ft | 15 kts | 240° |
| 2026-04-30 14:03 | 14.50766 | 121.01497 | 92 ft | 16 kts | 239° |
| 2026-04-30 14:04 | 14.50715 | 121.01408 | 92 ft | 16 kts | 239° |
| 2026-04-30 14:04 | 14.50671 | 121.01324 | 92 ft | 15 kts | 241° |
| 2026-04-30 14:04 | 14.50623 | 121.01235 | 92 ft | 15 kts | 240° |
| 2026-04-30 14:04 | 14.50573 | 121.01147 | 92 ft | 16 kts | 240° |
| 2026-04-30 14:05 | 14.50524 | 121.01060 | 92 ft | 16 kts | 240° |
| 2026-04-30 14:05 | 14.50474 | 121.00969 | 92 ft | 16 kts | 240° |
| 2026-04-30 14:05 | 14.50421 | 121.00874 | 92 ft | 17 kts | 240° |
| 2026-04-30 14:05 | 14.50368 | 121.00780 | 92 ft | 17 kts | 240° |
| 2026-04-30 14:06 | 14.50313 | 121.00681 | 92 ft | 17 kts | 239° |
| 2026-04-30 14:06 | 14.50202 | 121.00481 | 92 ft | 17 kts | 240° |
| 2026-04-30 14:07 | 14.50093 | 121.00285 | 92 ft | 17 kts | 241° |
| 2026-04-30 14:07 | 14.50035 | 121.00178 | 92 ft | 18 kts | 240° |
| 2026-04-30 14:07 | 14.49975 | 121.00069 | 92 ft | 18 kts | 240° |
| 2026-04-30 14:08 | 14.49900 | 120.99970 | 92 ft | 0 kts | 182° |
| 2026-04-30 14:08 | 14.49883 | 120.99971 | 92 ft | 4 kts | 171° |
| 2026-04-30 14:09 | 14.49840 | 120.99985 | 92 ft | 9 kts | 154° |
| 2026-04-30 14:09 | 14.49806 | 121.00033 | 92 ft | 8 kts | 94° |
| 2026-04-30 14:09 | 14.49838 | 121.00105 | 92 ft | 0 kts | 60° |
| 2026-04-30 14:10 | 14.49842 | 121.00111 | 92 ft | 6 kts | 61° |
| 2026-04-30 14:10 | 14.49941 | 121.00292 | 93 ft | 63 kts | 61° |
| 2026-04-30 14:10 | 14.50281 | 121.00896 | 93 ft | 124 kts | 61° |
| 2026-04-30 14:11 | 14.50977 | 121.02173 | 235 ft | 172 kts | 63° |
| 2026-04-30 14:11 | 14.51531 | 121.03184 | 845 ft | 170 kts | 63° |
| 2026-04-30 14:11 | 14.52092 | 121.04225 | 1502 ft | 168 kts | 63° |
| 2026-04-30 14:11 | 14.52649 | 121.05259 | 2012 ft | 175 kts | 63° |
| 2026-04-30 14:12 | 14.53282 | 121.06387 | 2329 ft | 188 kts | 62° |
| 2026-04-30 14:12 | 14.53852 | 121.07403 | 2568 ft | 200 kts | 62° |
| 2026-04-30 14:12 | 14.54627 | 121.08788 | 2872 ft | 216 kts | 62° |
| 2026-04-30 14:12 | 14.55384 | 121.10150 | 3152 ft | 231 kts | 62° |
| 2026-04-30 14:13 | 14.56142 | 121.11669 | 3459 ft | 246 kts | 75° |
| 2026-04-30 14:13 | 14.56295 | 121.13462 | 3765 ft | 259 kts | 102° |
| 2026-04-30 14:13 | 14.55602 | 121.15140 | 4181 ft | 267 kts | 130° |
| 2026-04-30 14:13 | 14.54322 | 121.16543 | 4885 ft | 269 kts | 137° |
| 2026-04-30 14:14 | 14.52991 | 121.17879 | 5564 ft | 272 kts | 138° |
| 2026-04-30 14:14 | 14.51656 | 121.19223 | 6213 ft | 277 kts | 138° |
| 2026-04-30 14:14 | 14.50263 | 121.20644 | 6884 ft | 281 kts | 138° |
| 2026-04-30 14:14 | 14.48872 | 121.22074 | 7542 ft | 286 kts | 138° |
| 2026-04-30 14:15 | 14.47307 | 121.23298 | 8184 ft | 286 kts | 159° |
| 2026-04-30 14:15 | 14.45413 | 121.23747 | 8831 ft | 284 kts | 184° |
| 2026-04-30 14:15 | 14.43512 | 121.23322 | 9475 ft | 283 kts | 208° |
| 2026-04-30 14:15 | 14.41951 | 121.22147 | 10046 ft | 286 kts | 229° |
| 2026-04-30 14:16 | 14.40599 | 121.20608 | 10542 ft | 298 kts | 232° |
| 2026-04-30 14:16 | 14.39246 | 121.18988 | 10890 ft | 315 kts | 232° |
| 2026-04-30 14:16 | 14.37782 | 121.17253 | 11353 ft | 328 kts | 231° |
| 2026-04-30 14:16 | 14.36287 | 121.15512 | 12102 ft | 332 kts | 231° |
| 2026-04-30 14:17 | 14.34834 | 121.13839 | 12879 ft | 333 kts | 230° |
| 2026-04-30 14:17 | 14.33300 | 121.12082 | 13651 ft | 335 kts | 230° |
| 2026-04-30 14:17 | 14.31753 | 121.10313 | 14403 ft | 338 kts | 230° |
| 2026-04-30 14:17 | 14.30178 | 121.08519 | 14995 ft | 346 kts | 230° |
| 2026-04-30 14:18 | 14.28501 | 121.06767 | 15557 ft | 355 kts | 225° |
| 2026-04-30 14:18 | 14.26647 | 121.05146 | 16224 ft | 360 kts | 219° |
| 2026-04-30 14:18 | 14.22500 | 121.02157 | 17600 ft | 369 kts | 216° |
| 2026-04-30 14:19 | 14.18304 | 120.99228 | 18905 ft | 377 kts | 215° |
| 2026-04-30 14:19 | 14.16125 | 120.97700 | 19563 ft | 380 kts | 215° |
| 2026-04-30 14:19 | 14.13934 | 120.96159 | 20206 ft | 384 kts | 215° |
| 2026-04-30 14:20 | 14.11727 | 120.94605 | 20828 ft | 387 kts | 215° |
| 2026-04-30 14:20 | 14.09503 | 120.93038 | 21420 ft | 391 kts | 215° |
| 2026-04-30 14:20 | 14.04782 | 120.90281 | 22522 ft | 400 kts | 195° |
| 2026-04-30 14:21 | 14.02036 | 120.89977 | 23061 ft | 403 kts | 175° |
| 2026-04-30 14:21 | 13.99252 | 120.90504 | 23617 ft | 405 kts | 166° |
| 2026-04-30 14:21 | 13.93793 | 120.91972 | 24652 ft | 411 kts | 165° |
| 2026-04-30 14:22 | 13.91025 | 120.92715 | 25160 ft | 414 kts | 165° |
| 2026-04-30 14:22 | 13.85449 | 120.94177 | 26129 ft | 419 kts | 165° |
| 2026-04-30 14:22 | 13.82640 | 120.94903 | 26588 ft | 422 kts | 165° |
| 2026-04-30 14:23 | 13.76896 | 120.96380 | 27495 ft | 427 kts | 165° |
| 2026-04-30 14:23 | 13.71104 | 120.97865 | 28350 ft | 432 kts | 165° |
| 2026-04-30 14:24 | 13.65249 | 120.99365 | 29182 ft | 436 kts | 165° |
| 2026-04-30 14:24 | 13.62334 | 121.00113 | 29580 ft | 438 kts | 165° |
| 2026-04-30 14:25 | 13.56405 | 121.01628 | 30360 ft | 442 kts | 165° |
| 2026-04-30 14:25 | 13.50315 | 121.02792 | 31100 ft | 447 kts | 172° |
| 2026-04-30 14:26 | 13.44148 | 121.03253 | 31797 ft | 451 kts | 178° |
| 2026-04-30 14:26 | 13.40969 | 121.03289 | 32135 ft | 453 kts | 179° |
| 2026-04-30 14:26 | 13.34644 | 121.03333 | 32777 ft | 457 kts | 179° |
| 2026-04-30 14:27 | 13.31492 | 121.03360 | 33086 ft | 459 kts | 179° |
| 2026-04-30 14:27 | 13.28301 | 121.03391 | 33390 ft | 461 kts | 178° |
| 2026-04-30 14:27 | 13.25069 | 121.03423 | 33731 ft | 461 kts | 179° |
| 2026-04-30 14:28 | 13.18663 | 121.03483 | 34594 ft | 458 kts | 179° |
| 2026-04-30 14:28 | 13.15526 | 121.03511 | 34986 ft | 457 kts | 179° |
| 2026-04-30 14:28 | 13.12355 | 121.03542 | 35354 ft | 456 kts | 179° |
| 2026-04-30 14:28 | 13.09192 | 121.03572 | 35651 ft | 457 kts | 178° |
| 2026-04-30 14:29 | 13.02777 | 121.03640 | 35934 ft | 466 kts | 179° |
| 2026-04-30 14:29 | 12.96255 | 121.03717 | 36309 ft | 471 kts | 181° |
| 2026-04-30 14:30 | 12.87220 | 121.03798 | 37070 ft | 471 kts | 181° |
| 2026-04-30 14:31 | 12.80161 | 121.03861 | 37071 ft | 472 kts | 181° |
| 2026-04-30 14:31 | 12.70472 | 121.03957 | 37061 ft | 471 kts | 181° |
| 2026-04-30 14:32 | 12.60634 | 121.04057 | 37023 ft | 471 kts | 181° |
| 2026-04-30 14:33 | 12.54082 | 121.04124 | 37001 ft | 472 kts | 181° |
| 2026-04-30 14:33 | 12.44218 | 121.04358 | 36990 ft | 473 kts | 175° |
| 2026-04-30 14:34 | 12.37832 | 121.05813 | 36990 ft | 474 kts | 162° |
| 2026-04-30 14:34 | 12.31915 | 121.08768 | 36991 ft | 474 kts | 148° |
| 2026-04-30 14:35 | 12.24453 | 121.15254 | 36992 ft | 470 kts | 137° |
| 2026-04-30 14:36 | 12.19731 | 121.19841 | 36991 ft | 467 kts | 137° |
| 2026-04-30 14:36 | 12.15019 | 121.24379 | 36990 ft | 466 kts | 137° |
| 2026-04-30 14:37 | 12.10303 | 121.28898 | 36990 ft | 466 kts | 137° |
| 2026-04-30 14:37 | 12.05596 | 121.33396 | 36990 ft | 466 kts | 137° |
| 2026-04-30 14:38 | 12.00884 | 121.37894 | 36990 ft | 466 kts | 137° |
| 2026-04-30 14:38 | 11.96164 | 121.42399 | 36990 ft | 466 kts | 137° |
| 2026-04-30 14:39 | 11.91423 | 121.46920 | 36990 ft | 466 kts | 137° |
| 2026-04-30 14:39 | 11.86851 | 121.51278 | 36990 ft | 466 kts | 137° |
| 2026-04-30 14:40 | 11.79682 | 121.58107 | 36990 ft | 466 kts | 137° |
| 2026-04-30 14:40 | 11.74967 | 121.62596 | 36990 ft | 466 kts | 137° |
| 2026-04-30 14:41 | 11.70222 | 121.67114 | 36990 ft | 466 kts | 137° |
| 2026-04-30 14:41 | 11.65518 | 121.71587 | 36990 ft | 466 kts | 137° |
| 2026-04-30 14:42 | 11.60795 | 121.76074 | 36990 ft | 466 kts | 137° |
| 2026-04-30 14:42 | 11.56074 | 121.80558 | 36990 ft | 466 kts | 137° |
| 2026-04-30 14:43 | 11.51347 | 121.85048 | 36990 ft | 466 kts | 137° |
| 2026-04-30 14:43 | 11.46599 | 121.89552 | 36990 ft | 466 kts | 137° |
| 2026-04-30 14:44 | 11.41860 | 121.94046 | 36990 ft | 466 kts | 137° |
| 2026-04-30 14:44 | 11.37128 | 121.98531 | 36990 ft | 466 kts | 137° |
| 2026-04-30 14:45 | 11.32410 | 122.03005 | 36990 ft | 466 kts | 137° |
| 2026-04-30 14:45 | 11.27648 | 122.07518 | 36990 ft | 466 kts | 137° |